Time;durP1;ratioP1;P1;durP2;ratioP2;P2;SDS_P1;SDS_P2;PMS_P1;PMS_P2;Temp;Humidity;BMP_temperature;BMP_pressure;BME280_temperature;BME280_humidity;BME280_pressure;Samples;Min_cycle;Max_cycle;Signal;HPM_P1;HPM_P2
2022/03/13 00:00:48;;;;;;;23.63;14.27;;;;;;;10.40;56.27;101396.56;5054317;28;20033;-61
2022/03/13 00:03:15;;;;;;;23.38;14.45;;;;;;;10.36;56.53;101401.81;5054489;28;20068;-60
2022/03/13 00:05:42;;;;;;;23.38;14.10;;;;;;;10.39;56.79;101392.13;5054064;28;20486;-61
2022/03/13 00:08:16;;;;;;;23.67;14.35;;;;;;;10.34;56.38;101398.50;5053984;28;20025;-59
2022/03/13 00:10:44;;;;;;;23.27;13.73;;;;;;;10.28;56.48;101406.03;5053323;28;20109;-62
2022/03/13 00:13:20;;;;;;;22.80;13.57;;;;;;;10.27;56.60;101395.25;5053993;28;20021;-59
2022/03/13 00:15:46;;;;;;;23.08;13.32;;;;;;;10.28;56.86;101402.44;5036091;28;20539;-59
2022/03/13 00:18:12;;;;;;;24.10;14.20;;;;;;;10.25;56.76;101403.81;5054046;28;20040;-59
2022/03/13 00:20:39;;;;;;;22.42;13.32;;;;;;;10.24;57.11;101399.44;5053653;28;20071;-59
2022/03/13 00:23:05;;;;;;;23.50;13.98;;;;;;;10.19;57.42;101396.69;5036398;28;20040;-60
2022/03/13 00:25:30;;;;;;;23.02;14.23;;;;;;;10.19;57.59;101399.47;5053694;28;20032;-58
2022/03/13 00:27:56;;;;;;;23.48;14.07;;;;;;;10.19;57.59;101393.13;5053359;28;20033;-59
2022/03/13 00:30:22;;;;;;;21.95;13.80;;;;;;;10.20;57.90;101397.53;5053267;28;20029;-60
2022/03/13 00:32:47;;;;;;;24.27;14.32;;;;;;;10.16;57.37;101394.50;5053715;28;20017;-60
2022/03/13 00:35:13;;;;;;;22.35;14.02;;;;;;;10.17;57.94;101392.59;5053590;28;20053;-61
2022/03/13 00:37:38;;;;;;;23.77;14.40;;;;;;;10.12;57.32;101394.25;5053663;28;20060;-60
2022/03/13 00:40:05;;;;;;;25.17;14.73;;;;;;;10.14;57.63;101389.28;5053261;28;20066;-60
2022/03/13 00:42:30;;;;;;;24.45;14.77;;;;;;;10.15;57.21;101384.59;5053010;28;20040;-60
2022/03/13 00:44:55;;;;;;;24.15;14.65;;;;;;;10.11;57.25;101381.56;5053485;28;20073;-60
2022/03/13 00:47:21;;;;;;;24.00;14.93;;;;;;;10.09;58.20;101371.91;5053207;28;20476;-59
2022/03/13 00:49:47;;;;;;;23.45;14.73;;;;;;;10.09;58.12;101366.38;5053222;28;20417;-61
2022/03/13 00:52:13;;;;;;;23.23;14.65;;;;;;;10.07;57.77;101368.59;5053323;28;20472;-61
2022/03/13 00:54:38;;;;;;;23.95;14.65;;;;;;;10.03;58.04;101362.84;5035194;28;20049;-60
2022/03/13 00:57:04;;;;;;;23.63;14.90;;;;;;;10.06;58.13;101366.97;5035398;28;20373;-61
2022/03/13 00:59:29;;;;;;;25.15;15.48;;;;;;;10.01;57.60;101367.00;5052810;28;20037;-60
2022/03/13 01:01:54;;;;;;;24.00;14.77;;;;;;;9.95;58.12;101358.78;5052862;28;20033;-60
2022/03/13 01:04:20;;;;;;;23.63;14.57;;;;;;;9.91;58.22;101360.44;5053199;28;20175;-60
2022/03/13 01:06:46;;;;;;;23.20;14.85;;;;;;;9.88;58.55;101362.97;5053083;28;20029;-60
2022/03/13 01:09:12;;;;;;;23.55;15.10;;;;;;;9.81;58.80;101357.75;5035537;28;20037;-61
2022/03/13 01:11:37;;;;;;;24.85;15.10;;;;;;;9.76;59.20;101357.81;5052694;28;20086;-59
2022/03/13 01:14:04;;;;;;;23.45;14.57;;;;;;;9.60;59.11;101326.72;5052824;28;20408;-60
2022/03/13 01:16:35;;;;;;;24.02;15.00;;;;;;;9.64;59.31;101349.88;5053001;28;20415;-60
2022/03/13 01:19:00;;;;;;;23.90;14.85;;;;;;;9.58;59.33;101351.88;5053099;28;20025;-60
2022/03/13 01:21:28;;;;;;;22.70;14.73;;;;;;;9.58;59.88;101353.78;5053468;28;20635;-60
2022/03/13 01:24:05;;;;;;;25.73;15.15;;;;;;;9.56;59.81;101359.63;5053474;28;20123;-61
2022/03/13 01:26:34;;;;;;;24.83;14.95;;;;;;;9.50;60.03;101353.28;5052994;28;20029;-60
2022/03/13 01:29:00;;;;;;;24.23;14.90;;;;;;;9.42;60.33;101353.91;5053483;28;20033;-60
2022/03/13 01:31:28;;;;;;;23.95;15.00;;;;;;;9.31;60.42;101327.47;5034701;28;20108;-61
2022/03/13 01:33:54;;;;;;;24.65;14.65;;;;;;;9.36;60.52;101339.31;5052801;28;20033;-61
2022/03/13 01:36:20;;;;;;;24.10;15.30;;;;;;;9.28;61.08;101325.25;5053319;28;20033;-61
2022/03/13 01:38:45;;;;;;;22.98;13.80;;;;;;;9.25;61.13;101334.13;5053010;28;20449;-61
2022/03/13 01:41:10;;;;;;;23.80;14.63;;;;;;;9.18;61.49;101326.97;5052500;28;20488;-60
2022/03/13 01:43:36;;;;;;;24.10;14.60;;;;;;;9.16;61.52;101323.66;5052639;28;20044;-60
2022/03/13 01:46:03;;;;;;;24.23;15.38;;;;;;;9.09;61.70;101320.41;5034887;28;20029;-60
2022/03/13 01:48:37;;;;;;;22.90;14.07;;;;;;;9.07;61.84;101321.81;5052609;28;20029;-60
2022/03/13 01:51:02;;;;;;;23.45;15.00;;;;;;;9.01;62.40;101313.56;5053188;28;20025;-60
2022/03/13 01:53:27;;;;;;;23.95;15.10;;;;;;;8.97;62.13;101306.94;5053024;28;20439;-58
2022/03/13 01:55:55;;;;;;;23.65;14.82;;;;;;;8.82;62.33;101294.06;5052482;28;20078;-59
2022/03/13 01:58:21;;;;;;;25.17;14.52;;;;;;;8.87;62.88;101304.25;5052780;28;20050;-59
2022/03/13 02:00:47;;;;;;;24.13;14.57;;;;;;;8.86;62.72;101305.34;5052449;28;20029;-60
2022/03/13 02:03:13;;;;;;;23.85;14.45;;;;;;;8.86;63.33;101305.34;5052461;28;20056;-61
2022/03/13 02:05:39;;;;;;;22.85;14.20;;;;;;;8.84;62.97;101311.16;5034577;28;20032;-60
2022/03/13 02:08:13;;;;;;;22.95;14.48;;;;;;;8.83;63.05;101306.75;5034469;28;20029;-60
2022/03/13 02:10:38;;;;;;;24.77;14.63;;;;;;;8.83;63.47;101306.75;5052161;28;20035;-61
2022/03/13 02:13:04;;;;;;;23.20;14.32;;;;;;;8.84;62.92;101296.50;5056660;28;20021;-61
2022/03/13 02:15:32;;;;;;;23.27;14.77;;;;;;;8.81;63.06;101286.88;5056151;28;20103;-61
2022/03/13 02:18:00;;;;;;;23.20;14.45;;;;;;;8.86;63.22;101300.66;5037908;28;20032;-61
2022/03/13 02:20:27;;;;;;;23.48;14.38;;;;;;;8.85;63.26;101299.00;5056179;28;20044;-61
2022/03/13 02:22:58;;;;;;;24.52;14.90;;;;;;;8.85;63.35;101296.25;5056362;28;20029;-60
2022/03/13 02:25:25;;;;;;;24.10;14.35;;;;;;;8.84;63.53;101291.84;5056396;28;20029;-60
2022/03/13 02:27:51;;;;;;;24.25;14.70;;;;;;;8.84;63.35;101291.00;5056223;28;20032;-61
2022/03/13 02:30:16;;;;;;;23.40;14.32;;;;;;;8.84;64.09;101289.09;5056351;28;20033;-62
2022/03/13 02:32:41;;;;;;;23.17;14.43;;;;;;;8.85;63.52;101289.91;5055699;28;20025;-61
2022/03/13 02:35:07;;;;;;;22.42;14.45;;;;;;;8.83;63.70;101281.09;5055696;28;20025;-61
2022/03/13 02:37:41;;;;;;;23.30;14.98;;;;;;;8.84;63.53;101289.09;5055908;28;20091;-61
2022/03/13 02:40:13;;;;;;;23.90;15.15;;;;;;;8.81;63.61;101289.63;5056114;28;20017;-61
2022/03/13 02:42:38;;;;;;;23.08;15.30;;;;;;;8.82;63.46;101290.47;5055559;28;20041;-60
2022/03/13 02:45:04;;;;;;;24.30;15.85;;;;;;;8.83;63.55;101292.94;5055950;28;20055;-60
2022/03/13 02:47:29;;;;;;;24.48;15.27;;;;;;;8.83;63.40;101286.63;5055442;28;20035;-60
2022/03/13 02:49:55;;;;;;;25.45;16.63;;;;;;;8.78;63.56;101287.47;5055360;28;20151;-60
2022/03/13 02:52:20;;;;;;;23.95;15.77;;;;;;;8.78;63.40;101281.94;5055388;28;20021;-60
2022/03/13 02:54:46;;;;;;;25.73;16.13;;;;;;;8.75;63.05;101279.75;5038057;28;20115;-60
2022/03/13 02:57:14;;;;;;;26.05;16.08;;;;;;;8.67;63.49;101270.13;5055772;28;20056;-60
2022/03/13 02:59:39;;;;;;;26.33;16.40;;;;;;;8.72;63.69;101281.16;5055540;28;20021;-60
2022/03/13 03:02:05;;;;;;;24.95;16.10;;;;;;;8.70;63.56;101280.59;5055367;28;20032;-61
2022/03/13 03:04:30;;;;;;;25.50;16.90;;;;;;;8.69;63.68;101278.94;5055296;28;20098;-60
2022/03/13 03:07:03;;;;;;;25.17;16.27;;;;;;;8.66;63.58;101273.97;5055376;28;20469;-60
2022/03/13 03:09:30;;;;;;;25.15;16.17;;;;;;;8.64;63.80;101272.63;5068911;22;20025;-49
2022/03/13 03:11:57;;;;;;;25.95;16.25;;;;;;;8.65;64.05;101277.84;5053780;28;20033;-51
2022/03/13 03:14:23;;;;;;;26.95;16.40;;;;;;;8.63;63.95;101273.72;5054376;28;20119;-52
2022/03/13 03:16:48;;;;;;;26.40;17.17;;;;;;;8.61;64.32;101267.66;5053809;28;20108;-50
2022/03/13 03:19:15;;;;;;;26.75;16.52;;;;;;;8.60;64.54;101272.38;5054154;28;20139;-51
2022/03/13 03:21:41;;;;;;;25.80;16.65;;;;;;;8.58;64.50;101271.81;5053852;28;20033;-50
2022/03/13 03:24:20;;;;;;;27.25;16.88;;;;;;;8.55;64.31;101267.69;5053968;28;20094;-52
2022/03/13 03:26:46;;;;;;;26.67;16.52;;;;;;;8.57;64.90;101267.41;5054324;28;20029;-53
2022/03/13 03:29:12;;;;;;;27.10;17.23;;;;;;;8.55;65.65;101269.59;5054093;28;20158;-53
2022/03/13 03:31:46;;;;;;;24.75;15.98;;;;;;;8.48;65.47;101267.19;5054399;28;20048;-52
2022/03/13 03:34:14;;;;;;;26.70;17.25;;;;;;;8.47;66.20;101271.03;5054469;28;20029;-53
2022/03/13 03:37:00;;;;;;;26.92;16.98;;;;;;;8.45;66.00;101267.69;5053393;28;20037;-51
2022/03/13 03:39:28;;;;;;;26.05;17.73;;;;;;;8.46;65.89;101269.34;5053304;28;20048;-53
2022/03/13 03:41:54;;;;;;;27.10;17.17;;;;;;;8.47;65.81;101270.16;5054195;28;20079;-52
2022/03/13 03:44:21;;;;;;;26.80;18.05;;;;;;;8.45;65.99;101261.38;5053983;28;20025;-51
2022/03/13 03:46:48;;;;;;;27.05;17.40;;;;;;;8.42;65.68;101265.50;5053639;28;20029;-54
2022/03/13 03:49:14;;;;;;;27.45;17.75;;;;;;;8.42;65.80;101266.34;5054030;28;20080;-51
2022/03/13 03:51:39;;;;;;;27.77;18.15;;;;;;;8.40;65.98;101267.72;5053841;28;20032;-52
2022/03/13 03:54:06;;;;;;;27.60;18.20;;;;;;;8.39;65.35;101264.13;5053718;28;20084;-52
2022/03/13 03:56:32;;;;;;;27.85;18.33;;;;;;;8.39;65.43;101269.66;5053566;28;20113;-53
2022/03/13 03:58:57;;;;;;;27.55;18.38;;;;;;;8.39;65.40;101266.09;5053538;28;20055;-52
2022/03/13 04:01:23;;;;;;;27.92;18.50;;;;;;;8.36;65.66;101258.38;5053437;28;20469;-49
2022/03/13 04:03:49;;;;;;;27.33;18.77;;;;;;;8.35;65.68;101265.81;5053545;28;20021;-54
2022/03/13 04:06:15;;;;;;;30.00;19.83;;;;;;;8.35;65.11;101262.22;5053891;28;20025;-50
2022/03/13 04:08:40;;;;;;;28.13;18.65;;;;;;;8.39;64.50;101258.63;5053937;28;20029;-53
2022/03/13 04:11:08;;;;;;;29.73;19.10;;;;;;;8.37;64.55;101265.53;5052851;28;20051;-54
2022/03/13 04:13:35;;;;;;;28.92;18.75;;;;;;;8.37;64.13;101257.25;5053753;28;20024;-54
2022/03/13 04:16:01;;;;;;;27.77;18.50;;;;;;;8.38;64.20;101258.91;5053113;28;20028;-50
2022/03/13 04:18:26;;;;;;;26.35;18.27;;;;;;;8.36;63.04;101258.38;5053269;28;20021;-54
2022/03/13 04:20:52;;;;;;;28.25;18.48;;;;;;;8.32;63.11;101255.34;5053402;28;20049;-51
2022/03/13 04:23:18;;;;;;;29.60;18.52;;;;;;;8.31;63.02;101261.16;5053302;28;20023;-54
2022/03/13 04:25:44;;;;;;;26.85;18.20;;;;;;;8.28;62.18;101255.09;5052942;28;20033;-51
2022/03/13 04:28:10;;;;;;;28.73;19.17;;;;;;;8.28;62.10;101249.56;5053414;28;20024;-52
2022/03/13 04:30:37;;;;;;;29.50;18.58;;;;;;;8.28;61.85;101257.84;5053137;28;20051;-53
2022/03/13 04:33:03;;;;;;;28.55;18.60;;;;;;;8.28;61.68;101246.81;5053007;28;20056;-53
2022/03/13 04:35:28;;;;;;;27.50;18.17;;;;;;;8.23;61.50;101249.56;5052721;28;20160;-55
2022/03/13 04:37:53;;;;;;;27.92;18.73;;;;;;;8.23;61.71;101249.56;5053551;28;20060;-53
2022/03/13 04:40:19;;;;;;;28.23;18.20;;;;;;;8.21;61.32;101249.06;5053320;28;20055;-53
2022/03/13 04:42:45;;;;;;;28.63;18.38;;;;;;;8.21;61.82;101245.44;5052618;28;20017;-53
2022/03/13 04:45:12;;;;;;;27.70;17.95;;;;;;;8.16;61.68;101249.06;5052803;28;20025;-52
2022/03/13 04:47:37;;;;;;;27.52;18.90;;;;;;;8.13;61.40;101255.09;5052808;28;20104;-50
2022/03/13 04:50:03;;;;;;;28.75;18.77;;;;;;;8.14;61.09;101259.53;5052978;28;20112;-54
2022/03/13 04:52:28;;;;;;;29.73;18.75;;;;;;;8.10;61.55;101264.78;5052113;28;20108;-52
2022/03/13 04:54:53;;;;;;;30.75;18.70;;;;;;;8.11;61.55;101268.38;5051276;28;20040;-54
2022/03/13 04:57:19;;;;;;;29.20;19.10;;;;;;;8.14;61.83;101273.28;5052441;28;20033;-50
2022/03/13 04:59:45;;;;;;;30.02;19.55;;;;;;;8.15;61.69;101266.69;5051956;28;20040;-51
2022/03/13 05:02:10;;;;;;;28.70;19.15;;;;;;;8.16;62.16;101267.53;5052509;28;20104;-54
2022/03/13 05:04:35;;;;;;;27.55;18.17;;;;;;;8.19;62.81;101269.69;5052174;28;20044;-53
2022/03/13 05:07:01;;;;;;;28.70;18.90;;;;;;;8.20;63.79;101274.13;5052902;28;20021;-53
2022/03/13 05:09:26;;;;;;;28.20;18.52;;;;;;;8.17;64.36;101261.72;5052280;28;20033;-52
2022/03/13 05:11:53;;;;;;;29.10;19.30;;;;;;;8.11;65.05;101260.91;5048580;28;20075;-54
2022/03/13 05:14:19;;;;;;;28.58;19.02;;;;;;;8.06;65.23;101262.84;5045296;28;20071;-52
2022/03/13 05:16:44;;;;;;;30.05;19.67;;;;;;;8.02;65.96;101253.50;5040599;28;20025;-54
2022/03/13 05:19:09;;;;;;;31.13;20.13;;;;;;;7.95;66.82;101254.59;5048632;28;20033;-52
2022/03/13 05:21:36;;;;;;;31.90;20.17;;;;;;;7.90;66.28;101254.63;5049384;28;20028;-49
2022/03/13 05:24:01;;;;;;;30.42;19.67;;;;;;;7.86;66.85;101248.00;5050875;28;20369;-52
2022/03/13 05:26:26;;;;;;;30.30;20.25;;;;;;;7.79;67.09;101247.47;5050883;28;20025;-52
2022/03/13 05:28:52;;;;;;;32.80;20.85;;;;;;;7.77;67.06;101252.44;5046905;28;20029;-50
2022/03/13 05:31:17;;;;;;;31.20;20.33;;;;;;;7.69;66.90;101245.56;5047040;28;20139;-52
2022/03/13 05:33:42;;;;;;;31.42;19.83;;;;;;;7.64;67.31;101245.56;5047587;28;20025;-53
2022/03/13 05:36:07;;;;;;;29.15;19.52;;;;;;;7.59;67.48;101243.63;5050985;28;20028;-50
2022/03/13 05:38:34;;;;;;;30.52;19.60;;;;;;;7.55;66.83;101242.56;5050695;28;20112;-50
2022/03/13 05:41:00;;;;;;;29.60;19.45;;;;;;;7.54;66.42;101254.66;5047102;28;20591;-46
2022/03/13 05:43:26;;;;;;;31.48;19.38;;;;;;;7.50;67.05;101250.78;5049947;28;20100;-53
2022/03/13 05:45:51;;;;;;;29.38;19.25;;;;;;;7.46;67.19;101253.28;5050856;28;20107;-51
2022/03/13 05:48:18;;;;;;;28.58;19.00;;;;;;;7.51;67.54;101251.63;5053633;28;20113;-54
2022/03/13 05:50:44;;;;;;;29.00;19.05;;;;;;;7.47;66.92;101252.19;5053673;28;20029;-52
2022/03/13 05:53:10;;;;;;;31.42;20.13;;;;;;;7.46;67.84;101244.19;5049455;28;20028;-53
2022/03/13 05:55:35;;;;;;;29.20;19.80;;;;;;;7.49;67.40;101260.16;5053797;28;20033;-53
2022/03/13 05:58:01;;;;;;;29.20;19.70;;;;;;;7.47;67.25;101260.44;5051102;28;20495;-54
2022/03/13 06:00:29;;;;;;;31.02;19.83;;;;;;;7.41;67.73;101261.53;5053963;28;20021;-53
2022/03/13 06:02:54;;;;;;;29.33;19.77;;;;;;;7.37;67.58;101252.16;5054198;28;20025;-51
2022/03/13 06:05:21;;;;;;;29.60;20.00;;;;;;;7.39;67.46;101262.91;5051857;28;20159;-50
2022/03/13 06:07:48;;;;;;;30.10;20.05;;;;;;;7.30;66.85;101246.94;5054497;28;20472;-48
2022/03/13 06:10:14;;;;;;;29.38;19.50;;;;;;;7.35;66.59;101262.63;5051753;28;20049;-48
2022/03/13 06:12:40;;;;;;;30.42;19.30;;;;;;;7.31;65.92;101253.28;5051785;28;20029;-49
2022/03/13 06:15:07;;;;;;;30.88;18.50;;;;;;;7.33;65.83;101251.06;5054605;28;20021;-48
2022/03/13 06:17:37;;;;;;;28.33;18.65;;;;;;;7.30;65.70;101235.91;5053712;28;20119;-49
2022/03/13 06:20:04;;;;;;;28.70;18.67;;;;;;;7.36;65.47;101261.53;5053720;28;20047;-49
2022/03/13 06:22:29;;;;;;;28.98;19.27;;;;;;;7.41;66.08;101257.94;5052555;28;20021;-49
2022/03/13 06:24:54;;;;;;;28.52;19.00;;;;;;;7.41;66.35;101249.69;5054269;28;20491;-50
2022/03/13 06:27:21;;;;;;;28.88;19.73;;;;;;;7.41;65.35;101255.19;5054624;28;20028;-52
2022/03/13 06:29:47;;;;;;;28.95;18.77;;;;;;;7.40;65.13;101256.28;5049037;28;20387;-51
2022/03/13 06:32:12;;;;;;;29.02;18.67;;;;;;;7.42;66.00;101259.59;5052961;28;20024;-52
2022/03/13 06:34:37;;;;;;;27.27;18.70;;;;;;;7.43;66.17;101261.25;5050884;28;20021;-53
2022/03/13 06:37:03;;;;;;;29.27;19.23;;;;;;;7.44;66.18;101260.97;5055246;28;20029;-54
2022/03/13 06:39:29;;;;;;;27.38;17.98;;;;;;;7.50;66.21;101261.81;5055308;28;20102;-54
2022/03/13 06:41:54;;;;;;;30.42;18.70;;;;;;;7.57;66.26;101256.84;5051298;28;20480;-51
2022/03/13 06:44:20;;;;;;;27.92;19.00;;;;;;;7.57;66.05;101262.34;5052517;28;20041;-51
2022/03/13 06:46:45;;;;;;;27.23;18.25;;;;;;;7.59;66.00;101257.41;5054078;28;20033;-49
2022/03/13 06:49:11;;;;;;;29.15;18.67;;;;;;;7.61;65.93;101255.19;5054568;28;20033;-50
2022/03/13 06:51:38;;;;;;;28.90;18.48;;;;;;;7.58;66.12;101255.75;5050296;28;20029;-53
2022/03/13 06:54:04;;;;;;;29.10;18.33;;;;;;;7.56;66.46;101255.19;5052441;28;20077;-52
2022/03/13 06:56:30;;;;;;;29.15;17.67;;;;;;;7.61;66.33;101260.72;5054518;28;20029;-53
2022/03/13 06:59:00;;;;;;;27.40;18.02;;;;;;;7.61;65.53;101263.47;5053878;28;20032;-52
2022/03/13 07:01:26;;;;;;;27.17;17.38;;;;;;;7.62;65.59;101256.00;5054634;28;20108;-52
2022/03/13 07:03:51;;;;;;;29.00;17.90;;;;;;;7.65;65.31;101261.78;5051517;28;20163;-50
2022/03/13 07:06:16;;;;;;;28.30;17.60;;;;;;;7.72;65.93;101257.94;5050894;28;20017;-52
2022/03/13 07:08:42;;;;;;;27.13;17.50;;;;;;;7.74;65.06;101266.78;5052260;28;20033;-51
2022/03/13 07:11:07;;;;;;;29.05;17.45;;;;;;;7.75;65.02;101265.63;5052987;28;20134;-54
2022/03/13 07:13:32;;;;;;;27.90;17.85;;;;;;;7.74;64.88;101262.06;5053661;28;20029;-52
2022/03/13 07:16:03;;;;;;;27.40;17.25;;;;;;;7.83;64.82;101261.50;5051980;28;20059;-52
2022/03/13 07:18:29;;;;;;;26.27;17.08;;;;;;;7.84;63.95;101258.47;5052802;28;20032;-51
2022/03/13 07:20:55;;;;;;;29.05;18.58;;;;;;;7.84;64.59;101258.47;5054617;28;20151;-54
2022/03/13 07:23:21;;;;;;;29.02;17.48;;;;;;;7.90;65.11;101259.28;5054937;28;20541;-55
2022/03/13 07:25:47;;;;;;;28.00;17.20;;;;;;;7.97;65.12;101259.84;5054812;28;20040;-53
2022/03/13 07:28:13;;;;;;;27.80;17.90;;;;;;;8.00;64.48;101262.03;5054615;28;20070;-53
2022/03/13 07:30:38;;;;;;;28.30;18.05;;;;;;;8.01;64.26;101263.69;5054868;28;20479;-49
2022/03/13 07:33:03;;;;;;;29.08;18.10;;;;;;;8.05;64.04;101264.78;5054479;28;20070;-52
2022/03/13 07:35:29;;;;;;;29.02;18.02;;;;;;;8.09;63.93;101268.63;5053229;28;20117;-52
2022/03/13 07:37:54;;;;;;;28.27;17.60;;;;;;;8.14;63.38;101264.22;5054402;28;20166;-51
2022/03/13 07:40:19;;;;;;;26.40;16.77;;;;;;;8.16;63.77;101264.78;5054044;28;20067;-53
2022/03/13 07:42:44;;;;;;;27.05;17.63;;;;;;;8.20;64.36;101263.09;5054398;28;20029;-53
2022/03/13 07:45:10;;;;;;;29.00;18.08;;;;;;;8.27;64.90;101263.63;5054452;28;20025;-53
2022/03/13 07:47:35;;;;;;;27.95;18.10;;;;;;;8.39;64.01;101257.81;5054033;28;20036;-53
2022/03/13 07:50:00;;;;;;;29.48;19.05;;;;;;;8.46;64.40;101254.72;5053972;28;20083;-53
2022/03/13 07:52:26;;;;;;;28.08;17.88;;;;;;;8.48;62.93;101250.63;5054233;28;20029;-53
2022/03/13 07:54:51;;;;;;;30.02;18.92;;;;;;;8.50;63.47;101253.09;5054236;28;20028;-52
2022/03/13 07:57:16;;;;;;;29.63;19.08;;;;;;;8.48;62.66;101250.63;5053986;28;20098;-51
2022/03/13 07:59:42;;;;;;;28.65;17.58;;;;;;;8.45;62.28;101255.88;5054032;28;20043;-53
2022/03/13 08:02:08;;;;;;;28.45;18.40;;;;;;;8.40;62.21;101256.69;5054300;28;20060;-53
2022/03/13 08:04:33;;;;;;;27.77;18.48;;;;;;;8.36;62.05;101259.16;5053943;28;20382;-53
2022/03/13 08:06:58;;;;;;;28.33;17.58;;;;;;;8.34;62.64;101260.56;5053887;28;20024;-53
2022/03/13 08:09:23;;;;;;;27.58;17.58;;;;;;;8.32;61.33;101260.84;5048744;28;20025;-54
2022/03/13 08:11:49;;;;;;;27.08;17.67;;;;;;;8.28;61.64;101259.75;5042178;28;20037;-53
2022/03/13 08:14:14;;;;;;;26.98;17.23;;;;;;;8.30;60.63;101253.97;5037423;28;20108;-53
2022/03/13 08:16:40;;;;;;;26.30;17.13;;;;;;;8.34;60.50;101252.28;5033743;28;20485;-53
2022/03/13 08:19:05;;;;;;;29.50;17.25;;;;;;;8.38;60.66;101250.63;5033542;28;20495;-52
2022/03/13 08:21:31;;;;;;;28.42;17.05;;;;;;;8.45;59.76;101256.66;5033665;28;20025;-54
2022/03/13 08:23:57;;;;;;;28.80;16.98;;;;;;;8.49;58.94;101252.28;5033660;28;20033;-52
2022/03/13 08:26:23;;;;;;;26.75;16.60;;;;;;;8.59;58.86;101248.66;5033310;28;20430;-51
2022/03/13 08:28:48;;;;;;;27.38;16.98;;;;;;;8.64;58.09;101256.06;5037274;28;20069;-52
2022/03/13 08:31:13;;;;;;;28.05;16.83;;;;;;;8.71;58.45;101253.81;5043906;28;20025;-52
2022/03/13 08:33:39;;;;;;;28.20;17.33;;;;;;;8.79;58.47;101244.94;5042265;28;20029;-51
2022/03/13 08:36:04;;;;;;;28.05;17.75;;;;;;;8.86;57.78;101248.25;5042793;28;20053;-52
2022/03/13 08:38:30;;;;;;;27.80;17.40;;;;;;;8.96;57.35;101241.03;5043685;28;20025;-54
2022/03/13 08:40:55;;;;;;;28.33;16.77;;;;;;;9.07;56.86;101244.53;5041717;28;20014;-52
2022/03/13 08:43:21;;;;;;;27.70;17.48;;;;;;;9.12;56.30;101244.47;5040740;28;20531;-52
2022/03/13 08:45:47;;;;;;;27.90;17.08;;;;;;;9.20;55.98;101244.69;5033381;28;20052;-50
2022/03/13 08:48:13;;;;;;;30.75;19.85;;;;;;;9.31;56.80;101247.38;5033418;28;20108;-52
2022/03/13 08:50:38;;;;;;;27.63;17.27;;;;;;;9.48;56.73;101256.09;5033155;28;20026;-51
2022/03/13 08:53:04;;;;;;;27.25;16.75;;;;;;;9.64;56.64;101251.25;5033330;28;20045;-50
2022/03/13 08:55:29;;;;;;;26.15;16.95;;;;;;;9.78;55.62;101245.03;5033105;28;20017;-52
2022/03/13 08:57:54;;;;;;;25.80;16.30;;;;;;;9.96;55.63;101243.50;5033140;28;20029;-51
2022/03/13 09:00:21;;;;;;;28.95;17.00;;;;;;;10.08;54.87;101245.84;5032738;28;20109;-52
2022/03/13 09:02:46;;;;;;;27.02;16.48;;;;;;;10.11;52.88;101242.50;5033163;28;20108;-52
2022/03/13 09:05:12;;;;;;;28.42;18.20;;;;;;;10.14;52.95;101239.19;5033057;28;20104;-54
2022/03/13 09:07:37;;;;;;;27.00;16.83;;;;;;;10.18;52.50;101237.44;5032971;28;20032;-53
2022/03/13 09:10:07;;;;;;;29.65;19.20;;;;;;;10.15;52.08;101236.09;5032934;28;20416;-54
2022/03/13 09:12:33;;;;;;;27.50;17.38;;;;;;;10.21;53.51;101238.78;5033617;28;20107;-53
2022/03/13 09:15:00;;;;;;;29.33;18.98;;;;;;;10.26;53.04;101228.50;5032915;28;20021;-50
2022/03/13 09:17:26;;;;;;;28.52;17.90;;;;;;;10.42;52.55;101228.38;5032872;28;20026;-52
2022/03/13 09:19:51;;;;;;;29.88;19.10;;;;;;;10.55;52.54;101230.41;5033824;28;20070;-56
2022/03/13 09:22:18;;;;;;;30.35;19.35;;;;;;;10.68;52.72;101231.59;5039492;28;20029;-52
2022/03/13 09:24:45;;;;;;;29.45;20.00;;;;;;;10.71;50.94;101224.69;5039361;28;20037;-53
2022/03/13 09:27:11;;;;;;;28.98;19.25;;;;;;;10.75;51.85;101221.03;5039629;28;20029;-53
2022/03/13 09:29:37;;;;;;;29.38;19.77;;;;;;;10.83;50.70;101224.22;5039475;28;20033;-54
2022/03/13 09:32:02;;;;;;;30.75;19.67;;;;;;;10.97;51.45;101227.06;5039282;28;20025;-51
2022/03/13 09:34:28;;;;;;;32.63;20.00;;;;;;;11.15;51.11;101223.47;5038301;28;20029;-51
2022/03/13 09:36:53;;;;;;;29.73;20.27;;;;;;;11.29;50.52;101217.19;5038220;28;20393;-54
2022/03/13 09:39:18;;;;;;;30.27;19.52;;;;;;;11.44;50.70;101216.91;5038204;28;20032;-54
2022/03/13 09:41:44;;;;;;;28.73;17.98;;;;;;;11.54;50.52;101227.00;5038439;28;20071;-54
2022/03/13 09:44:09;;;;;;;28.35;18.30;;;;;;;11.64;50.31;101223.22;5038469;28;20026;-52
2022/03/13 09:46:36;;;;;;;26.77;17.40;;;;;;;11.76;50.06;101226.31;5038173;28;20033;-53
2022/03/13 09:49:02;;;;;;;27.92;17.73;;;;;;;11.83;50.50;101223.16;5043420;28;20037;-54
2022/03/13 09:51:28;;;;;;;29.38;18.23;;;;;;;11.99;51.54;101229.28;5055666;28;20098;-51
2022/03/13 09:53:53;;;;;;;27.73;18.10;;;;;;;12.11;52.59;101220.44;5058476;28;20484;-52
2022/03/13 09:56:19;;;;;;;29.38;18.13;;;;;;;12.17;50.61;101224.78;5059074;28;20021;-51
2022/03/13 09:58:45;;;;;;;31.27;19.20;;;;;;;12.27;51.09;101230.13;5059014;28;20072;-51
2022/03/13 10:01:11;;;;;;;31.92;18.15;;;;;;;12.34;49.26;101229.69;5047350;28;20135;-52
2022/03/13 10:03:37;;;;;;;28.52;18.27;;;;;;;12.43;49.30;101229.78;5057795;28;20027;-52
2022/03/13 10:06:02;;;;;;;28.30;17.80;;;;;;;12.54;49.28;101227.63;5058526;28;20032;-53
2022/03/13 10:08:29;;;;;;;27.65;17.98;;;;;;;12.67;49.04;101224.00;5058531;28;20029;-53
2022/03/13 10:10:56;;;;;;;29.08;17.77;;;;;;;12.75;48.90;101214.94;5057491;28;20110;-51
2022/03/13 10:13:43;;;;;;;27.80;16.85;;;;;;;12.89;50.22;101220.47;5059222;28;20036;-51
2022/03/13 10:16:15;;;;;;;27.05;17.40;;;;;;;12.99;49.74;101216.63;5059068;28;20035;-53
2022/03/13 10:18:41;;;;;;;26.83;17.38;;;;;;;13.05;48.58;101212.59;5058775;28;20021;-53
2022/03/13 10:21:12;;;;;;;28.55;17.45;;;;;;;13.15;49.25;101200.41;5058171;28;20031;-51
2022/03/13 10:23:38;;;;;;;26.63;16.13;;;;;;;13.27;48.83;101192.34;5058840;28;20033;-53
2022/03/13 10:26:07;;;;;;;26.13;16.52;;;;;;;13.36;47.94;101195.19;5057516;28;20025;-53
2022/03/13 10:28:34;;;;;;;25.73;16.48;;;;;;;13.47;48.32;101192.16;5058882;28;20029;-52
2022/03/13 10:31:00;;;;;;;26.42;16.33;;;;;;;13.46;47.53;101198.88;5058894;28;20036;-55
2022/03/13 10:33:26;;;;;;;25.55;16.13;;;;;;;13.48;47.83;101191.03;5054710;28;20033;-53
2022/03/13 10:36:07;;;;;;;27.58;17.30;;;;;;;13.57;48.67;101189.13;5055753;28;20021;-51
2022/03/13 10:38:33;;;;;;;25.52;16.10;;;;;;;13.67;47.72;101179.69;5055461;28;20032;-50
2022/03/13 10:40:58;;;;;;;26.27;16.33;;;;;;;13.78;47.21;101169.94;5055657;28;20029;-53
2022/03/13 10:43:27;;;;;;;26.25;15.50;;;;;;;13.91;46.96;101170.97;5055484;28;20064;-54
2022/03/13 10:45:54;;;;;;;28.85;16.42;;;;;;;14.02;47.54;101174.28;5055451;28;20029;-54
2022/03/13 10:48:33;;;;;;;26.48;16.15;;;;;;;14.10;47.33;101167.13;5055628;28;20037;-51
2022/03/13 10:51:07;;;;;;;25.05;15.00;;;;;;;14.15;46.58;101170.56;5055564;28;20017;-52
2022/03/13 10:53:32;;;;;;;27.40;15.43;;;;;;;14.17;46.34;101170.25;5055550;28;20028;-50
2022/03/13 10:56:08;;;;;;;25.00;14.50;;;;;;;14.16;46.94;101172.22;5055086;28;20119;-53
2022/03/13 10:58:48;;;;;;;26.33;16.23;;;;;;;14.19;46.99;101173.53;5055263;28;20048;-52
2022/03/13 11:01:16;;;;;;;25.75;15.50;;;;;;;14.27;46.66;101169.13;5055452;28;20132;-51
2022/03/13 11:03:56;;;;;;;27.38;17.02;;;;;;;14.33;46.66;101165.84;5055275;28;20024;-52
2022/03/13 11:06:26;;;;;;;24.35;15.48;;;;;;;14.39;46.48;101174.88;5055121;28;20107;-49
2022/03/13 11:08:55;;;;;;;25.17;15.85;;;;;;;14.43;46.06;101167.53;5054636;28;20033;-52
2022/03/13 11:11:22;;;;;;;24.88;15.70;;;;;;;14.48;45.68;101163.78;5055204;28;20041;-53